Time;durP1;ratioP1;P1;durP2;ratioP2;P2;SDS_P1;SDS_P2;PMS_P1;PMS_P2;Temp;Humidity;BMP_temperature;BMP_pressure;BME280_temperature;BME280_humidity;BME280_pressure;Samples;Min_cycle;Max_cycle;Signal;HPM_P1;HPM_P2
2024/01/23 00:02:11;;;;;;;2.37;2.20;;;-0.10;80.00;;;;;;6332350;22;20178;-82
2024/01/23 00:04:39;;;;;;;13.53;4.50;;;-0.10;80.10;;;;;;6331034;22;20250;-83
2024/01/23 00:07:08;;;;;;;2.87;2.67;;;-0.20;79.80;;;;;;6331973;22;20674;-82
2024/01/23 00:09:37;;;;;;;3.70;1.80;;;-0.20;80.00;;;;;;6332988;22;20677;-82
2024/01/23 00:12:08;;;;;;;3.50;2.73;;;-0.20;79.90;;;;;;6331043;22;20224;-82
2024/01/23 00:14:37;;;;;;;3.00;2.83;;;-0.20;79.70;;;;;;6328845;22;20168;-82
2024/01/23 00:17:05;;;;;;;2.97;2.33;;;-0.20;79.60;;;;;;6335600;22;20233;-82
2024/01/23 00:19:34;;;;;;;0.63;0.63;;;-0.20;79.70;;;;;;6334519;22;20167;-83
2024/01/23 00:22:03;;;;;;;6.07;3.23;;;-0.20;79.60;;;;;;6332149;22;20245;-82
2024/01/23 00:24:31;;;;;;;6.83;3.63;;;-0.20;79.50;;;;;;6330955;22;20176;-83
2024/01/23 00:27:00;;;;;;;4.03;3.70;;;-0.20;79.50;;;;;;6332574;22;20643;-83
2024/01/23 00:29:30;;;;;;;4.03;2.60;;;-0.30;79.40;;;;;;6334077;22;20222;-84
2024/01/23 00:31:58;;;;;;;3.23;2.93;;;-0.40;79.10;;;;;;6333513;22;20167;-84
2024/01/23 00:34:27;;;;;;;2.33;2.23;;;-0.40;79.20;;;;;;6331180;22;20622;-85
2024/01/23 00:36:55;;;;;;;1.87;1.77;;;-0.40;79.40;;;;;;6331776;22;20194;-85
2024/01/23 00:39:24;;;;;;;1.77;1.67;;;-0.40;79.40;;;;;;6333057;22;20519;-85
2024/01/23 00:41:53;;;;;;;5.30;2.77;;;-0.40;79.50;;;;;;6331836;22;20167;-85
2024/01/23 00:44:21;;;;;;;6.37;2.83;;;-0.40;79.50;;;;;;6329275;22;20199;-85
2024/01/23 00:46:51;;;;;;;3.43;2.80;;;-0.40;79.30;;;;;;6333492;22;20175;-85
2024/01/23 00:49:20;;;;;;;1.57;1.47;;;-0.40;79.20;;;;;;6332919;22;20191;-85
2024/01/23 00:51:48;;;;;;;2.37;2.07;;;-0.40;78.90;;;;;;6333225;22;20624;-86
2024/01/23 00:54:17;;;;;;;2.53;2.17;;;-0.30;79.10;;;;;;6331081;22;20182;-84
2024/01/23 00:56:46;;;;;;;2.90;1.97;;;-0.40;78.80;;;;;;6332731;22;20199;-85
2024/01/23 00:59:15;;;;;;;3.90;2.80;;;-0.40;78.90;;;;;;6332657;22;20170;-84
2024/01/23 01:01:43;;;;;;;1.53;1.43;;;-0.40;78.60;;;;;;6333453;22;20179;-84
2024/01/23 01:04:13;;;;;;;3.70;1.87;;;-0.40;78.50;;;;;;6330785;22;20639;-84
2024/01/23 01:06:42;;;;;;;2.83;2.63;;;-0.40;78.40;;;;;;6333971;22;20246;-84
2024/01/23 01:09:10;;;;;;;1.53;1.50;;;-0.50;78.50;;;;;;6331772;22;20210;-84
2024/01/23 01:11:39;;;;;;;2.97;2.77;;;-0.50;78.60;;;;;;6331556;22;20179;-83
2024/01/23 01:14:08;;;;;;;3.73;2.63;;;-0.50;78.60;;;;;;6329757;22;20515;-84
2024/01/23 01:16:36;;;;;;;3.40;2.63;;;-0.50;78.60;;;;;;6333118;22;20342;-84
2024/01/23 01:19:05;;;;;;;1.67;1.57;;;-0.50;79.50;;;;;;6336335;22;20196;-83
2024/01/23 01:21:35;;;;;;;1.63;1.53;;;-0.50;79.10;;;;;;6332068;22;20168;-84
2024/01/23 01:24:04;;;;;;;0.73;0.73;;;-0.50;78.70;;;;;;6328621;22;20176;-84
2024/01/23 01:26:32;;;;;;;4.23;3.40;;;-0.50;78.60;;;;;;6332656;22;20168;-84
2024/01/23 01:29:01;;;;;;;3.20;1.37;;;-0.50;79.40;;;;;;6331814;22;20274;-84
2024/01/23 01:31:29;;;;;;;1.57;1.53;;;-0.50;78.60;;;;;;6332643;22;20172;-84
2024/01/23 01:33:58;;;;;;;1.87;1.77;;;-0.50;78.60;;;;;;6329637;22;20206;-83
2024/01/23 01:36:27;;;;;;;1.67;1.30;;;-0.50;78.80;;;;;;6332946;22;20250;-83
2024/01/23 01:39:00;;;;;;;5.40;2.87;;;-0.50;78.90;;;;;;6333514;22;20260;-83
2024/01/23 01:44:24;;;;;;;2.33;1.90;;;-0.50;78.90;;;;;;6328836;22;20163;-82
2024/01/23 01:52:19;;;;;;;8.33;3.20;;;-0.50;79.20;;;;;;6331233;22;20232;-83
2024/01/23 01:54:50;;;;;;;2.57;1.60;;;-0.50;79.40;;;;;;6328982;22;20634;-84
2024/01/23 02:00:15;;;;;;;2.50;2.40;;;-0.60;79.40;;;;;;6330097;22;20179;-83
2024/01/23 02:02:46;;;;;;;2.53;2.40;;;-0.60;80.10;;;;;;6333404;22;20168;-84
2024/01/23 02:05:16;;;;;;;1.53;1.43;;;-0.60;80.00;;;;;;6329804;22;20204;-84
2024/01/23 02:07:44;;;;;;;2.27;2.13;;;-0.60;80.10;;;;;;6334277;22;20250;-84
2024/01/23 02:10:15;;;;;;;2.77;1.57;;;-0.50;80.20;;;;;;6330633;22;20734;-83
2024/01/23 02:12:43;;;;;;;0.80;0.80;;;-0.50;80.20;;;;;;6333422;22;20174;-82
2024/01/23 02:15:12;;;;;;;1.50;1.47;;;-0.50;80.40;;;;;;6328343;22;20764;-82
2024/01/23 02:17:40;;;;;;;3.00;1.10;;;-0.50;80.50;;;;;;6335226;22;20172;-83
2024/01/23 02:20:10;;;;;;;1.80;1.70;;;-0.50;80.50;;;;;;6354173;22;20239;-83
2024/01/23 02:22:39;;;;;;;6.43;4.10;;;-0.50;80.70;;;;;;6360439;22;20168;-83
2024/01/23 02:25:09;;;;;;;3.27;2.00;;;-0.50;80.70;;;;;;6338401;22;20179;-84
2024/01/23 02:27:51;;;;;;;1.83;1.73;;;-0.50;80.80;;;;;;6336512;22;20168;-83
2024/01/23 02:30:20;;;;;;;1.00;0.90;;;-0.50;80.90;;;;;;6333019;22;20207;-83
2024/01/23 02:32:48;;;;;;;1.80;1.67;;;-0.50;80.90;;;;;;6332643;22;20283;-83
2024/01/23 02:35:17;;;;;;;0.97;0.97;;;-0.50;81.00;;;;;;6332510;22;20477;-82
2024/01/23 02:37:45;;;;;;;1.00;1.00;;;-0.40;81.00;;;;;;6337992;22;20169;-83
2024/01/23 02:40:15;;;;;;;10.30;4.10;;;-0.40;81.10;;;;;;6332912;22;20171;-83
2024/01/23 02:42:44;;;;;;;3.37;2.53;;;-0.40;81.30;;;;;;6332228;22;20199;-83
2024/01/23 02:45:12;;;;;;;1.83;1.73;;;-0.50;81.40;;;;;;6330974;22;20196;-83
2024/01/23 02:47:55;;;;;;;2.40;2.20;;;-0.40;81.30;;;;;;6333050;22;20217;-83
2024/01/23 02:50:24;;;;;;;1.80;1.70;;;-0.40;81.30;;;;;;6331975;22;20200;-83
2024/01/23 02:52:52;;;;;;;5.13;2.20;;;-0.40;81.30;;;;;;6332861;22;20608;-83
2024/01/23 02:55:22;;;;;;;2.23;2.00;;;-0.40;81.30;;;;;;6330271;22;20255;-83
2024/01/23 03:00:35;;;;;;;1.27;1.17;;;-0.40;81.20;;;;;;6330819;22;20631;-83
2024/01/23 03:03:04;;;;;;;2.10;2.00;;;-0.40;81.20;;;;;;6332500;22;20168;-83
2024/01/23 03:05:33;;;;;;;3.37;2.90;;;-0.40;81.30;;;;;;6333302;22;20242;-83
2024/01/23 03:08:02;;;;;;;3.10;2.80;;;-0.40;81.30;;;;;;6333007;22;20685;-83
2024/01/23 03:10:32;;;;;;;3.33;3.07;;;-0.40;81.30;;;;;;6332579;22;20210;-83
2024/01/23 03:13:00;;;;;;;5.10;2.63;;;-0.40;81.40;;;;;;6329373;22;20171;-83
2024/01/23 03:15:29;;;;;;;2.77;2.53;;;-0.40;81.40;;;;;;6330826;22;20175;-82
2024/01/23 03:17:58;;;;;;;3.07;2.87;;;-0.40;81.60;;;;;;6333569;22;20192;-82
2024/01/23 03:20:29;;;;;;;1.80;1.70;;;-0.40;81.60;;;;;;6333929;22;20282;-82
2024/01/23 03:22:58;;;;;;;1.00;1.00;;;-0.30;81.70;;;;;;6331799;22;20244;-82
2024/01/23 03:25:27;;;;;;;3.80;1.57;;;-0.30;82.50;;;;;;6331826;22;20178;-82
2024/01/23 03:27:58;;;;;;;1.43;1.37;;;-0.20;81.70;;;;;;6333119;22;20176;-82
2024/01/23 03:30:30;;;;;;;1.40;1.30;;;-0.20;81.70;;;;;;6331168;22;20697;-82
2024/01/23 03:33:00;;;;;;;2.97;2.77;;;-0.20;81.60;;;;;;6332296;22;20199;-81
2024/01/23 03:35:29;;;;;;;1.83;1.40;;;-0.20;81.60;;;;;;6331813;22;20183;-82
2024/01/23 03:37:57;;;;;;;0.73;0.73;;;-0.20;81.70;;;;;;6332604;22;20171;-81
2024/01/23 03:40:25;;;;;;;2.67;1.23;;;-0.20;81.60;;;;;;6330885;22;20287;-82
2024/01/23 03:42:54;;;;;;;1.43;1.37;;;-0.10;81.40;;;;;;6333367;22;20218;-82
2024/01/23 03:45:24;;;;;;;2.83;2.00;;;-0.10;81.30;;;;;;6331346;22;20247;-82
2024/01/23 03:47:52;;;;;;;2.03;1.93;;;-0.10;81.10;;;;;;6333914;22;20190;-81
2024/01/23 03:50:21;;;;;;;6.03;3.73;;;-0.20;80.90;;;;;;6331924;22;20196;-82
2024/01/23 03:52:50;;;;;;;5.87;2.17;;;-0.20;80.90;;;;;;6332654;22;20201;-82
2024/01/23 03:55:18;;;;;;;4.37;3.50;;;-0.20;81.00;;;;;;6331491;22;20168;-82
2024/01/23 03:57:47;;;;;;;0.83;0.83;;;-0.20;81.10;;;;;;6336964;22;20203;-81
2024/01/23 04:00:16;;;;;;;2.77;2.63;;;-0.10;81.30;;;;;;6330317;22;20172;-82
2024/01/23 04:02:46;;;;;;;2.10;1.90;;;-0.10;81.40;;;;;;6330524;22;20164;-81
2024/01/23 04:05:15;;;;;;;3.00;2.80;;;-0.10;81.20;;;;;;6329456;22;20210;-82
2024/01/23 04:07:44;;;;;;;1.27;1.17;;;-0.10;81.10;;;;;;6335188;22;20168;-82
2024/01/23 04:10:12;;;;;;;3.23;2.20;;;-0.10;81.10;;;;;;6332592;22;20256;-82
2024/01/23 04:12:42;;;;;;;3.83;3.53;;;-0.10;81.10;;;;;;6333918;22;20600;-82
2024/01/23 04:15:11;;;;;;;2.20;1.80;;;-0.10;81.20;;;;;;6329435;22;20172;-82
2024/01/23 04:17:41;;;;;;;2.80;2.60;;;-0.20;81.00;;;;;;6337571;22;20187;-82
2024/01/23 04:20:12;;;;;;;4.33;3.13;;;-0.20;80.70;;;;;;6333300;22;20179;-82
2024/01/23 04:22:41;;;;;;;7.50;2.03;;;-0.30;80.70;;;;;;6334006;22;20234;-82
2024/01/23 04:25:12;;;;;;;1.30;1.20;;;-0.30;80.70;;;;;;6330273;22;20167;-82
2024/01/23 04:27:40;;;;;;;0.80;0.80;;;-0.30;80.80;;;;;;6335640;22;20196;-82
2024/01/23 04:30:10;;;;;;;1.23;1.13;;;-0.30;81.00;;;;;;6332514;22;20623;-82
2024/01/23 04:32:38;;;;;;;4.03;2.20;;;-0.30;81.00;;;;;;6331814;22;20174;-81
2024/01/23 04:35:07;;;;;;;1.57;1.53;;;-0.30;81.00;;;;;;6328360;22;20176;-82
2024/01/23 04:37:37;;;;;;;4.47;2.13;;;-0.20;81.00;;;;;;6334454;22;20691;-82
2024/01/23 04:40:08;;;;;;;3.28;3.00;;;-0.20;80.80;;;;;;6332378;22;20385;-81
2024/01/23 04:42:37;;;;;;;1.90;1.53;;;-0.30;80.80;;;;;;6333185;22;20171;-80
2024/01/23 04:45:08;;;;;;;6.33;4.13;;;-0.20;80.80;;;;;;6327615;22;20223;-82
2024/01/23 04:47:37;;;;;;;2.43;1.60;;;-0.20;80.60;;;;;;6334121;22;20183;-84
2024/01/23 04:50:06;;;;;;;1.87;1.73;;;-0.30;80.40;;;;;;6329282;22;20172;-85
2024/01/23 04:52:35;;;;;;;3.63;2.60;;;-0.30;80.20;;;;;;6331981;22;20195;-85
2024/01/23 04:55:06;;;;;;;2.67;2.47;;;-0.40;79.80;;;;;;6329179;22;20164;-82
2024/01/23 04:57:34;;;;;;;1.00;1.00;;;-0.40;80.00;;;;;;6334276;22;20171;-81
2024/01/23 05:00:04;;;;;;;3.23;2.20;;;-0.40;80.40;;;;;;6333980;22;20171;-81
2024/01/23 05:02:33;;;;;;;3.13;2.78;;;-0.50;80.20;;;;;;6358560;22;20432;-81
2024/01/23 05:05:03;;;;;;;1.40;1.33;;;-0.50;80.50;;;;;;6354433;22;20167;-81
2024/01/23 05:07:31;;;;;;;2.87;2.00;;;-0.50;80.80;;;;;;6341965;22;20248;-80
2024/01/23 05:10:00;;;;;;;2.53;1.63;;;-0.60;80.80;;;;;;6335602;22;20771;-80
2024/01/23 05:12:30;;;;;;;3.80;3.50;;;-0.60;81.00;;;;;;6334328;22;20207;-80
2024/01/23 05:14:59;;;;;;;1.93;1.83;;;-0.70;81.10;;;;;;6328551;22;20531;-80
2024/01/23 05:17:27;;;;;;;5.43;2.40;;;-0.70;81.10;;;;;;6332312;22;20168;-80
2024/01/23 05:19:56;;;;;;;1.87;1.57;;;-0.80;81.20;;;;;;6334201;22;20169;-80
2024/01/23 05:22:24;;;;;;;19.57;2.60;;;-0.80;81.50;;;;;;6332404;22;20502;-80
2024/01/23 05:24:53;;;;;;;1.73;1.43;;;-0.90;81.30;;;;;;6321797;22;20191;-79
2024/01/23 05:27:21;;;;;;;7.60;3.07;;;-0.90;81.60;;;;;;6333425;22;20343;-80
2024/01/23 05:29:51;;;;;;;4.20;3.87;;;-0.90;81.70;;;;;;6332367;22;20250;-80
2024/01/23 05:32:20;;;;;;;5.20;3.90;;;-1.00;81.80;;;;;;6332083;22;20195;-80
2024/01/23 05:34:48;;;;;;;3.00;2.80;;;-1.00;81.80;;;;;;6327754;22;20573;-80
2024/01/23 05:37:17;;;;;;;1.53;1.43;;;-1.10;81.80;;;;;;6335685;22;20172;-80
2024/01/23 05:39:46;;;;;;;1.27;1.17;;;-1.10;81.90;;;;;;6332531;22;20180;-80
2024/01/23 05:42:15;;;;;;;0.50;0.50;;;-1.10;81.80;;;;;;6332780;22;20175;-81
2024/01/23 05:44:43;;;;;;;2.27;1.83;;;-1.20;81.80;;;;;;6328859;22;20487;-80
2024/01/23 05:47:14;;;;;;;6.43;2.20;;;-1.20;81.90;;;;;;6332221;22;20232;-81
2024/01/23 05:52:25;;;;;;;3.20;1.43;;;-1.20;82.10;;;;;;6330770;22;20199;-79
2024/01/23 05:54:53;;;;;;;2.07;1.93;;;-1.30;82.30;;;;;;6325674;22;20172;-80
2024/01/23 05:57:22;;;;;;;1.63;1.53;;;-1.30;82.40;;;;;;6334917;22;20176;-79
2024/01/23 05:59:51;;;;;;;4.97;1.47;;;-1.30;82.40;;;;;;6333395;22;20640;-81
2024/01/23 06:02:34;;;;;;;1.47;1.37;;;-1.30;82.50;;;;;;6330696;22;20167;-80
2024/01/23 06:05:03;;;;;;;2.57;1.33;;;-1.40;82.40;;;;;;6329018;22;20199;-81
2024/01/23 06:07:31;;;;;;;1.67;1.57;;;-1.40;82.40;;;;;;6334889;22;20662;-80
2024/01/23 06:10:00;;;;;;;1.77;1.67;;;-1.40;82.30;;;;;;6332681;22;20232;-80
2024/01/23 06:12:28;;;;;;;2.27;2.07;;;-1.40;82.40;;;;;;6335495;22;20258;-80
2024/01/23 06:14:57;;;;;;;1.00;1.00;;;-1.40;82.50;;;;;;6330038;22;20631;-81
2024/01/23 06:17:25;;;;;;;1.40;1.30;;;-1.40;82.50;;;;;;6335717;22;20171;-81
2024/01/23 06:19:55;;;;;;;2.07;1.97;;;-1.40;82.80;;;;;;6335509;22;20221;-80
2024/01/23 06:22:38;;;;;;;0.97;0.97;;;-1.40;83.00;;;;;;6334324;22;20204;-80
2024/01/23 06:25:08;;;;;;;4.30;1.80;;;-1.40;83.10;;;;;;6326165;22;20190;-80
2024/01/23 06:27:50;;;;;;;0.63;0.63;;;-1.40;83.10;;;;;;6332181;22;20167;-80
2024/01/23 06:30:19;;;;;;;2.00;1.90;;;-1.40;83.10;;;;;;6331780;22;20170;-80
2024/01/23 06:35:45;;;;;;;3.43;1.00;;;-1.40;83.40;;;;;;6331315;22;20223;-81
2024/01/23 06:38:13;;;;;;;0.80;0.80;;;-1.30;83.50;;;;;;6337118;22;20176;-81
2024/01/23 06:40:42;;;;;;;1.00;1.00;;;-1.30;83.40;;;;;;6333754;22;20172;-81
2024/01/23 06:45:52;;;;;;;3.17;2.90;;;-1.20;83.30;;;;;;6330189;22;20180;-82
2024/01/23 06:48:21;;;;;;;1.10;1.10;;;-1.10;83.20;;;;;;6335385;22;20173;-81
2024/01/23 06:53:34;;;;;;;1.83;1.70;;;-1.00;83.10;;;;;;6332554;22;20571;-86
2024/01/23 07:01:41;;;;;;;3.57;1.60;;;-0.90;82.80;;;;;;6332646;22;20569;-87
2024/01/23 07:04:09;;;;;;;1.27;1.23;;;-0.90;82.90;;;;;;6330827;22;20516;-85
2024/01/23 07:06:54;;;;;;;3.23;2.73;;;-0.90;82.70;;;;;;6333909;22;20226;-85
2024/01/23 07:12:19;;;;;;;1.00;1.00;;;-0.80;82.40;;;;;;6333485;22;20245;-87
2024/01/23 07:14:47;;;;;;;0.97;0.97;;;-0.80;81.80;;;;;;6331284;22;20221;-86
2024/01/23 07:17:17;;;;;;;2.50;2.13;;;-0.80;81.80;;;;;;6333427;22;20178;-84
2024/01/23 07:19:45;;;;;;;5.07;3.30;;;-0.80;81.80;;;;;;6334979;22;20229;-87
2024/01/23 07:22:15;;;;;;;3.03;2.00;;;-0.80;81.80;;;;;;6333426;22;20503;-87
2024/01/23 07:24:44;;;;;;;3.80;2.93;;;-0.70;81.80;;;;;;6330342;22;20176;-86
2024/01/23 07:27:13;;;;;;;2.10;2.00;;;-0.70;81.80;;;;;;6332071;22;20389;-85
2024/01/23 07:29:41;;;;;;;0.97;0.97;;;-0.60;81.80;;;;;;6335123;22;20161;-87
2024/01/23 07:32:23;;;;;;;0.80;0.80;;;-0.50;81.70;;;;;;6332259;22;20722;-86
2024/01/23 07:34:52;;;;;;;1.40;1.33;;;-0.40;82.00;;;;;;6332421;22;20164;-87
2024/01/23 07:37:23;;;;;;;1.10;1.10;;;-0.30;82.00;;;;;;6333920;22;20196;-86
2024/01/23 07:39:51;;;;;;;2.47;2.27;;;-0.30;82.00;;;;;;6332393;22;20179;-86
2024/01/23 07:42:20;;;;;;;1.80;1.70;;;-0.20;81.70;;;;;;6340489;22;20169;-85
2024/01/23 07:47:31;;;;;;;1.60;1.50;;;0.00;81.70;;;;;;6358769;22;20164;-86
2024/01/23 07:55:26;;;;;;;3.40;2.10;;;0.30;81.10;;;;;;6331577;22;20280;-85
2024/01/23 07:58:12;;;;;;;3.17;1.03;;;0.40;81.00;;;;;;6331653;22;20167;-84
2024/01/23 08:00:42;;;;;;;3.33;2.57;;;0.60;81.00;;;;;;6332030;22;20505;-85
2024/01/23 08:03:11;;;;;;;5.23;2.40;;;0.70;80.20;;;;;;6329192;22;20594;-86
2024/01/23 08:05:40;;;;;;;4.40;4.00;;;0.80;79.90;;;;;;6331492;22;20276;-84
2024/01/23 08:08:11;;;;;;;4.50;3.17;;;0.90;79.60;;;;;;6331269;22;20238;-85
2024/01/23 08:10:39;;;;;;;2.73;2.40;;;1.00;79.50;;;;;;6331545;22;20503;-84
2024/01/23 08:13:08;;;;;;;11.10;2.53;;;1.10;79.40;;;;;;6331517;22;20202;-84
2024/01/23 08:15:36;;;;;;;3.23;2.80;;;1.20;79.70;;;;;;6333095;22;20172;-84
2024/01/23 08:18:06;;;;;;;5.07;4.67;;;1.30;79.70;;;;;;6333425;22;20175;-85
2024/01/23 08:20:35;;;;;;;4.20;3.57;;;1.40;79.70;;;;;;6334330;22;20172;-85
2024/01/23 08:23:03;;;;;;;1.17;1.17;;;1.40;79.10;;;;;;6330497;22;20176;-85
2024/01/23 08:25:34;;;;;;;4.00;3.70;;;1.50;79.60;;;;;;6333611;22;20210;-85
2024/01/23 08:28:03;;;;;;;8.97;2.60;;;1.60;79.60;;;;;;6333875;22;20623;-84
2024/01/23 08:30:31;;;;;;;3.97;2.60;;;1.70;79.30;;;;;;6332704;22;20702;-85
2024/01/23 08:33:00;;;;;;;2.30;2.20;;;1.70;77.90;;;;;;6331063;22;20201;-84
2024/01/23 08:35:29;;;;;;;2.57;2.37;;;1.80;77.00;;;;;;6333577;22;20175;-85
2024/01/23 08:37:57;;;;;;;8.50;3.27;;;1.80;76.70;;;;;;6332855;22;20229;-85
2024/01/23 08:40:27;;;;;;;2.33;1.40;;;1.80;76.00;;;;;;6333404;22;20258;-85
2024/01/23 08:42:57;;;;;;;3.40;2.70;;;1.80;76.40;;;;;;6332962;22;20182;-84
2024/01/23 08:45:25;;;;;;;3.80;2.95;;;1.80;76.00;;;;;;6330880;22;20400;-85
2024/01/23 08:47:54;;;;;;;3.40;3.03;;;1.70;75.80;;;;;;6334428;22;20168;-82
2024/01/23 08:50:22;;;;;;;3.13;2.90;;;1.60;75.00;;;;;;6330911;22;20542;-84
2024/01/23 08:52:51;;;;;;;5.87;3.07;;;1.70;75.50;;;;;;6333912;22;20278;-84
2024/01/23 08:55:19;;;;;;;12.43;3.20;;;1.60;75.50;;;;;;6330466;22;20173;-85
2024/01/23 08:57:48;;;;;;;2.40;2.23;;;1.70;75.50;;;;;;6334873;22;20572;-85
2024/01/23 09:00:19;;;;;;;12.10;4.53;;;1.60;75.50;;;;;;6333995;22;20199;-85
2024/01/23 09:02:48;;;;;;;5.63;2.43;;;1.60;75.60;;;;;;6334363;22;20202;-85
2024/01/23 09:05:15;;;;;;;2.30;2.10;;;1.60;76.90;;;;;;6329788;22;20199;-87
2024/01/23 09:07:44;;;;;;;4.03;2.50;;;1.60;75.90;;;;;;6333921;22;20167;-85
2024/01/23 09:10:12;;;;;;;8.00;3.30;;;1.40;75.20;;;;;;6333502;22;20174;-85
2024/01/23 09:12:41;;;;;;;3.47;3.27;;;1.50;75.50;;;;;;6332715;22;20190;-86
2024/01/23 09:17:54;;;;;;;1.50;1.40;;;1.40;75.50;;;;;;6332359;22;20197;-86
2024/01/23 09:20:22;;;;;;;1.30;1.20;;;1.40;75.80;;;;;;6333803;22;20206;-84
2024/01/23 09:25:33;;;;;;;1.63;1.53;;;1.40;76.30;;;;;;6332507;22;20175;-85
2024/01/23 09:28:01;;;;;;;3.83;3.37;;;1.30;76.50;;;;;;6331009;22;20200;-85
2024/01/23 09:30:30;;;;;;;1.53;1.23;;;1.20;76.90;;;;;;6331247;22;20177;-85
2024/01/23 09:33:15;;;;;;;3.03;2.73;;;1.20;77.10;;;;;;6331891;22;20650;-86
2024/01/23 09:35:43;;;;;;;4.73;3.00;;;1.20;77.20;;;;;;6333325;22;20178;-84
2024/01/23 09:41:23;;;;;;;1.53;1.43;;;1.20;77.90;;;;;;6332265;22;20167;-86
2024/01/23 09:46:50;;;;;;;2.13;2.00;;;1.20;78.50;;;;;;6330661;22;20165;-85
2024/01/23 09:49:21;;;;;;;5.20;2.23;;;1.20;78.70;;;;;;6332509;22;20174;-83
2024/01/23 09:54:41;;;;;;;6.47;3.33;;;1.30;78.90;;;;;;6330071;22;20484;-86
2024/01/23 09:57:10;;;;;;;9.47;3.67;;;1.10;79.50;;;;;;6333407;22;20240;-86
2024/01/23 09:59:39;;;;;;;3.17;2.57;;;1.10;79.70;;;;;;6334897;22;20167;-85
2024/01/23 10:02:10;;;;;;;2.67;2.47;;;1.20;79.80;;;;;;6333129;22;20178;-85
2024/01/23 10:04:40;;;;;;;3.63;2.83;;;1.20;80.00;;;;;;6331365;22;20630;-86
2024/01/23 10:07:09;;;;;;;2.33;2.17;;;1.20;79.80;;;;;;6330492;22;20638;-85
2024/01/23 10:09:39;;;;;;;3.97;3.60;;;1.20;80.00;;;;;;6333989;22;20197;-85
2024/01/23 10:12:09;;;;;;;3.60;2.57;;;1.20;80.00;;;;;;6332329;22;20181;-85
2024/01/23 10:14:43;;;;;;;2.70;2.03;;;1.30;80.20;;;;;;6331267;22;20202;-87
2024/01/23 10:17:12;;;;;;;4.38;2.92;;;1.30;80.30;;;;;;6329068;22;21142;-84
2024/01/23 10:19:42;;;;;;;2.77;2.23;;;1.30;80.80;;;;;;6332082;22;20173;-84
2024/01/23 10:22:11;;;;;;;1.10;1.10;;;1.30;80.70;;;;;;6333933;22;20168;-84
2024/01/23 10:27:22;;;;;;;2.30;2.07;;;1.40;80.70;;;;;;6359072;22;20186;-83
2024/01/23 10:33:02;;;;;;;2.40;1.87;;;1.30;80.80;;;;;;6339799;22;20217;-82
2024/01/23 10:35:34;;;;;;;3.90;2.37;;;1.50;80.70;;;;;;6333323;22;20253;-86
2024/01/23 10:40:46;;;;;;;1.90;1.80;;;1.60;80.40;;;;;;6329671;22;20254;-83
2024/01/23 10:43:17;;;;;;;3.40;3.03;;;1.50;80.20;;;;;;6328465;22;20565;-85
2024/01/23 10:45:47;;;;;;;2.43;1.60;;;1.40;80.40;;;;;;6331060;22;20195;-85
2024/01/23 10:48:16;;;;;;;5.70;3.23;;;1.50;80.50;;;;;;6333576;22;20174;-83
2024/01/23 10:50:49;;;;;;;4.60;3.30;;;1.60;80.60;;;;;;6332084;22;20696;-84
2024/01/23 10:53:21;;;;;;;5.70;4.37;;;1.50;80.60;;;;;;6330316;22;20680;-83
2024/01/23 10:55:53;;;;;;;5.80;3.87;;;1.50;80.50;;;;;;6335161;22;20172;-83
2024/01/23 10:58:28;;;;;;;3.23;3.03;;;1.50;80.40;;;;;;6335017;22;20666;-83
2024/01/23 11:01:00;;;;;;;2.17;1.97;;;1.50;80.20;;;;;;6332061;22;20542;-82
2024/01/23 11:03:30;;;;;;;0.83;0.83;;;1.50;80.10;;;;;;6328543;22;20171;-83
2024/01/23 11:06:04;;;;;;;2.73;2.53;;;1.50;79.80;;;;;;6333374;22;20199;-84
2024/01/23 11:08:37;;;;;;;0.90;0.90;;;1.50;79.90;;;;;;6335693;22;20202;-84
2024/01/23 11:11:15;;;;;;;1.67;1.57;;;1.50;79.90;;;;;;6332558;22;20190;-83
2024/01/23 11:13:56;;;;;;;2.63;1.80;;;1.50;79.80;;;;;;6331354;22;20673;-83
2024/01/23 11:16:25;;;;;;;1.87;1.70;;;1.50;79.60;;;;;;6330020;22;20615;-84
2024/01/23 11:18:55;;;;;;;2.17;1.90;;;1.50;79.50;;;;;;6330944;22;20175;-80
2024/01/23 11:21:27;;;;;;;2.37;2.17;;;1.50;79.50;;;;;;6332141;22;20250;-80
2024/01/23 11:24:00;;;;;;;1.83;1.30;;;1.40;79.40;;;;;;6329835;22;20502;-80
2024/01/23 11:26:32;;;;;;;4.33;3.40;;;1.50;79.70;;;;;;6333930;22;20170;-80
2024/01/23 11:29:05;;;;;;;2.43;2.30;;;1.40;79.70;;;;;;6334506;22;20498;-80
2024/01/23 11:31:42;;;;;;;1.53;1.43;;;1.40;80.00;;;;;;6333951;22;20631;-80
2024/01/23 11:34:41;;;;;;;5.53;2.07;;;1.40;80.20;;;;;;6330062;22;20198;-80
2024/01/23 11:37:47;;;;;;;1.80;1.53;;;1.40;80.40;;;;;;6333310;22;20179;-80
2024/01/23 11:40:42;;;;;;;3.60;3.30;;;1.40;80.50;;;;;;6332084;22;20258;-80
2024/01/23 11:43:24;;;;;;;1.00;1.00;;;1.50;80.90;;;;;;6331498;22;20174;-80
2024/01/23 11:45:53;;;;;;;2.77;2.50;;;1.30;81.20;;;;;;6332668;22;20191;-80
2024/01/23 11:48:21;;;;;;;1.63;1.33;;;1.40;81.40;;;;;;6334925;22;20171;-81
2024/01/23 11:50:55;;;;;;;4.43;3.57;;;1.40;82.60;;;;;;6333407;22;20201;-80
2024/01/23 11:53:29;;;;;;;4.17;3.33;;;1.40;81.90;;;;;;6330888;22;20172;-80
2024/01/23 11:56:00;;;;;;;3.07;2.80;;;1.30;82.00;;;;;;6332631;22;20175;-80
2024/01/23 11:58:28;;;;;;;2.23;2.13;;;1.40;82.20;;;;;;6334516;22;20172;-80
2024/01/23 12:00:58;;;;;;;3.27;2.60;;;1.30;82.60;;;;;;6334645;22;20188;-80
2024/01/23 12:03:27;;;;;;;4.67;4.27;;;1.40;82.60;;;;;;6331351;22;20196;-79
2024/01/23 12:05:57;;;;;;;2.23;2.10;;;1.30;83.00;;;;;;6328026;22;20203;-79
2024/01/23 12:08:25;;;;;;;1.33;1.27;;;1.40;83.00;;;;;;6329538;22;20654;-80
2024/01/23 12:10:54;;;;;;;2.70;1.87;;;1.30;83.10;;;;;;6328068;22;20171;-81
2024/01/23 12:13:25;;;;;;;6.60;2.70;;;1.40;83.20;;;;;;6332193;22;20211;-81
2024/01/23 12:15:54;;;;;;;2.93;2.63;;;1.20;83.10;;;;;;6332266;22;20179;-80
2024/01/23 12:18:23;;;;;;;1.43;1.33;;;1.30;83.30;;;;;;6332210;22;20175;-81
2024/01/23 12:20:56;;;;;;;5.47;2.93;;;1.20;83.70;;;;;;6334048;22;20191;-80
2024/01/23 12:23:39;;;;;;;8.47;4.17;;;1.10;84.10;;;;;;6331994;22;20557;-80
2024/01/23 12:26:08;;;;;;;4.87;3.57;;;1.20;84.20;;;;;;6332898;22;20772;-82
2024/01/23 12:28:38;;;;;;;3.30;3.07;;;1.20;84.40;;;;;;6333092;22;20176;-80
2024/01/23 12:31:12;;;;;;;2.87;2.67;;;1.20;84.20;;;;;;6333135;22;20641;-81
2024/01/23 12:36:42;;;;;;;9.73;4.30;;;1.20;84.90;;;;;;6330289;22;20790;-81
2024/01/23 12:39:11;;;;;;;2.90;2.13;;;1.20;85.20;;;;;;6333172;22;20167;-81
2024/01/23 12:41:40;;;;;;;2.30;2.20;;;1.10;85.40;;;;;;6333900;22;20194;-79
2024/01/23 12:44:10;;;;;;;1.13;1.10;;;1.20;85.60;;;;;;6331212;22;21252;-78
2024/01/23 12:46:38;;;;;;;4.33;2.73;;;1.10;85.80;;;;;;6334442;22;20170;-79
2024/01/23 12:49:08;;;;;;;3.77;3.47;;;1.10;86.20;;;;;;6333603;22;21056;-80
2024/01/23 12:51:37;;;;;;;3.50;3.20;;;1.20;86.30;;;;;;6331759;22;20171;-80
2024/01/23 12:57:03;;;;;;;3.50;2.60;;;1.20;86.90;;;;;;6328121;22;20177;-83
2024/01/23 13:04:58;;;;;;;4.53;3.00;;;1.10;86.60;;;;;;6329321;22;20194;-81
2024/01/23 13:07:27;;;;;;;6.00;2.77;;;1.00;86.80;;;;;;6340347;22;20172;-81
2024/01/23 13:09:57;;;;;;;2.73;2.60;;;1.00;86.70;;;;;;6357617;22;20155;-83
2024/01/23 13:12:25;;;;;;;1.93;1.67;;;1.10;86.90;;;;;;6361022;22;20633;-81
2024/01/23 13:14:55;;;;;;;3.45;2.72;;;1.10;87.00;;;;;;6343055;22;20452;-80
2024/01/23 13:17:24;;;;;;;3.03;2.60;;;1.00;87.20;;;;;;6339452;22;20233;-80
2024/01/23 13:19:52;;;;;;;3.73;3.50;;;1.00;87.40;;;;;;6331184;22;20178;-82
2024/01/23 13:22:21;;;;;;;3.80;3.40;;;1.10;87.70;;;;;;6332840;22;20254;-82
2024/01/23 13:24:52;;;;;;;3.10;2.90;;;1.00;88.10;;;;;;6327752;22;20226;-81
2024/01/23 13:27:21;;;;;;;1.60;1.50;;;1.00;88.30;;;;;;6334026;22;20625;-83
2024/01/23 13:29:50;;;;;;;2.17;2.07;;;1.00;88.40;;;;;;6333115;22;20175;-82
2024/01/23 13:32:55;;;;;;;1.97;1.87;;;1.00;88.90;;;;;;6331845;22;20472;-83
2024/01/23 13:35:24;;;;;;;5.10;3.67;;;0.90;90.30;;;;;;6330688;22;20166;-83
2024/01/23 13:37:54;;;;;;;3.23;2.93;;;1.00;90.10;;;;;;6333887;22;20171;-84
2024/01/23 13:40:23;;;;;;;5.20;3.10;;;1.00;90.40;;;;;;6334655;22;20651;-83
2024/01/23 13:43:05;;;;;;;4.10;3.53;;;1.10;90.50;;;;;;6328002;22;20241;-83
2024/01/23 13:45:34;;;;;;;4.33;3.90;;;1.00;90.30;;;;;;6332964;22;20234;-82
2024/01/23 13:48:04;;;;;;;4.93;4.43;;;1.00;90.30;;;;;;6332501;22;20174;-82
2024/01/23 13:50:33;;;;;;;9.20;4.40;;;1.00;90.10;;;;;;6333006;22;20169;-82
2024/01/23 13:53:02;;;;;;;7.93;4.13;;;1.00;90.00;;;;;;6329665;22;20639;-83
2024/01/23 13:55:30;;;;;;;1.80;1.57;;;0.90;90.00;;;;;;6331481;22;20182;-82
2024/01/23 13:57:59;;;;;;;1.93;1.83;;;1.00;89.90;;;;;;6333266;22;20251;-84
2024/01/23 14:00:27;;;;;;;3.57;2.93;;;0.90;90.00;;;;;;6333282;22;20502;-84
2024/01/23 14:02:56;;;;;;;1.57;1.53;;;0.90;90.00;;;;;;6328538;22;20172;-84
2024/01/23 14:05:29;;;;;;;3.33;1.93;;;0.90;89.70;;;;;;6331194;22;20209;-85
2024/01/23 14:07:57;;;;;;;1.93;1.83;;;0.80;89.70;;;;;;6333462;22;20173;-83
2024/01/23 14:10:26;;;;;;;8.53;5.10;;;0.90;89.70;;;;;;6333309;22;20566;-83
2024/01/23 14:12:54;;;;;;;29.60;6.77;;;0.80;90.10;;;;;;6330120;22;20166;-85
2024/01/23 14:15:23;;;;;;;0.97;0.97;;;0.80;90.20;;;;;;6330140;22;20169;-84
2024/01/23 14:17:52;;;;;;;4.20;2.63;;;0.80;90.70;;;;;;6330203;22;20199;-83
2024/01/23 14:20:20;;;;;;;3.07;2.87;;;0.90;90.40;;;;;;6332659;22;20179;-83
2024/01/23 14:22:53;;;;;;;11.10;2.67;;;0.80;90.40;;;;;;6333285;22;20201;-82